METAR Data
IDs: Format: Raw Decoded Include TAF

Data at: 2135 UTC 08 Aug 2020

K2A0 082115Z AUTO VRB04KT 10SM CLR 32/19 A3009 RMK A01
K2A0 082055Z AUTO 36008KT 10SM CLR 33/19 A3010 RMK A01
K2A0 082035Z AUTO VRB05G11KT 10SM FEW060 FEW090 33/18 A3010 RMK A01
K2A0 082015Z AUTO 00000KT 10SM FEW090 33/19 A3011 RMK A01
K2A0 081955Z AUTO 03005KT 10SM CLR 34/18 A3011 RMK A01
K2A0 081935Z AUTO 03004KT 10SM CLR 33/19 A3012 RMK A01
K2A0 081915Z AUTO 33003KT 10SM CLR 33/19 A3013 RMK A01
K2A0 081855Z AUTO 26005KT 10SM CLR 33/21 A3013 RMK A01
K2A0 081835Z AUTO VRB05KT 10SM CLR 33/20 A3014 RMK A01
K2A0 081815Z AUTO VRB04KT 10SM CLR 33/19 A3014 RMK A01
K2A0 081755Z AUTO 00000KT 10SM CLR 32/19 A3015 RMK A01
K2A0 081735Z AUTO 00000KT 10SM CLR 32/19 A3015 RMK A01
K2A0 081715Z AUTO VRB04KT 10SM CLR 32/20 A3016 RMK A01
K2A0 081655Z AUTO 26006KT 10SM CLR 31/19 A3016 RMK A01
K2A0 081635Z AUTO VRB04KT 10SM CLR 31/20 A3016 RMK A01
K2A0 081615Z AUTO 26004KT 10SM CLR 30/21 A3016 RMK A01
K2A0 081555Z AUTO 00000KT 10SM CLR 29/20 A3017 RMK A01
K2A0 081535Z AUTO 00000KT 10SM CLR 29/20 A3017 RMK A01
K2A0 081515Z AUTO VRB03KT 10SM CLR 28/20 A3017 RMK A01
K2A0 081455Z AUTO 00000KT 10SM CLR 28/21 A3017 RMK A01
K2A0 081435Z AUTO 00000KT 10SM CLR 27/21 A3017 RMK A01
K2A0 081415Z AUTO 00000KT 10SM CLR 27/21 A3017 RMK A01
K2A0 081355Z AUTO 01004KT 10SM CLR 26/21 A3017 RMK A01
K2A0 081335Z AUTO 02003KT 10SM CLR 25/21 A3017 RMK A01
K2A0 081315Z AUTO 00000KT 10SM CLR 24/21 A3017 RMK A01
K2A0 081255Z AUTO 00000KT 10SM CLR 23/20 A3017 RMK A01
K2A0 081235Z AUTO 00000KT 10SM CLR 23/20 A3017 RMK A01
K2A0 081215Z AUTO 00000KT 10SM CLR 21/20 A3016 RMK A01
K2A0 081155Z AUTO 00000KT 8SM CLR 20/19 A3016 RMK A01
K2A0 081135Z AUTO 00000KT 6SM BR CLR 19/19 A3015 RMK A01
K2A0 081115Z AUTO 00000KT 9SM CLR 19/19 A3015 RMK A01
K2A0 081055Z AUTO 00000KT 9SM CLR 19/19 A3015 RMK A01
K2A0 081035Z AUTO 00000KT 10SM CLR 19/19 A3014 RMK A01
K2A0 081015Z AUTO 00000KT 9SM CLR 19/19 A3014 RMK A01
K2A0 080955Z AUTO 00000KT 6SM BR CLR 19/19 A3013 RMK A01
K2A0 080935Z AUTO 00000KT 6SM BR CLR 19/19 A3013 RMK A01
K2A0 080915Z AUTO 00000KT 10SM CLR 19/19 A3012 RMK A01
K2A0 080855Z AUTO 00000KT 9SM CLR 20/19 A3012 RMK A01
K2A0 080835Z AUTO 00000KT 8SM CLR 20/19 A3012 RMK A01
K2A0 080815Z AUTO 00000KT 9SM CLR 20/19 A3011 RMK A01
K2A0 080755Z AUTO 00000KT 9SM CLR 20/20 A3012 RMK A01
K2A0 080735Z AUTO 00000KT 10SM SCT016 20/20 A3012 RMK A01
K2A0 080715Z AUTO 00000KT 10SM OVC016 20/20 A3012 RMK A01
K2A0 080655Z AUTO 00000KT 10SM OVC016 20/20 A3012 RMK A01
K2A0 080635Z AUTO 00000KT 10SM OVC017 21/20 A3012 RMK A01
K2A0 080615Z AUTO 00000KT 10SM BKN015 BKN019 21/20 A3012 RMK A01
K2A0 080555Z AUTO 00000KT 10SM BKN016 OVC021 21/20 A3012 RMK A01
K2A0 080535Z AUTO 00000KT 10SM BKN017 OVC022 21/20 A3012 RMK A01
K2A0 080515Z AUTO 00000KT 10SM BKN017 OVC060 21/20 A3012 RMK A01
K2A0 080455Z AUTO 00000KT 10SM BKN017 OVC055 22/20 A3012 RMK A01
K2A0 080435Z AUTO 00000KT 10SM BKN018 OVC023 22/20 A3012 RMK A01
K2A0 080415Z AUTO 00000KT 10SM BKN018 OVC022 22/21 A3012 RMK A01
K2A0 080355Z AUTO 00000KT 10SM BKN017 OVC022 22/20 A3012 RMK A01
K2A0 080335Z AUTO 00000KT 10SM BKN018 OVC023 23/20 A3012 RMK A01
K2A0 080315Z AUTO 00000KT 10SM OVC020 23/21 A3012 RMK A01
K2A0 080255Z AUTO 00000KT 10SM BKN020 BKN024 23/21 A3012 RMK A01
K2A0 080235Z AUTO 00000KT 10SM OVC020 24/20 A3011 RMK A01
K2A0 080215Z AUTO 00000KT 10SM BKN018 24/20 A3011 RMK A01
K2A0 080155Z AUTO 00000KT 10SM BKN017 BKN021 24/21 A3010 RMK A01
K2A0 080135Z AUTO 00000KT 10SM BKN018 24/20 A3009 RMK A01
K2A0 080115Z AUTO 00000KT 10SM BKN018 26/20 A3008 RMK A01
K2A0 080055Z AUTO 00000KT 10SM SCT018 26/20 A3008 RMK A01
K2A0 080035Z AUTO 00000KT 10SM FEW017 28/20 A3007 RMK A01
K2A0 080015Z AUTO 00000KT 10SM CLR 29/19 A3007 RMK A01
K2A0 072355Z AUTO 00000KT 10SM CLR 30/19 A3006 RMK A01
K2A0 072335Z AUTO 32004KT 10SM CLR 31/19 A3006 RMK A01
K2A0 072315Z AUTO 32004KT 10SM CLR 31/19 A3005 RMK A01
K2A0 072255Z AUTO 35006KT 10SM CLR 32/19 A3005 RMK A01
K2A0 072235Z AUTO 33004KT 10SM CLR 32/19 A3005 RMK A01
K2A0 072215Z AUTO 33007G13KT 10SM CLR 32/19 A3005 RMK A01
K2A0 072155Z AUTO VRB06KT 10SM FEW055 33/19 A3004 RMK A01
K2A0 072135Z AUTO 00000KT 10SM FEW050 FEW055 32/21 A3004 RMK A01
K2A0 072115Z AUTO 35005KT 10SM CLR 32/20 A3005 RMK A01
K2A0 072055Z AUTO 00000KT 10SM FEW048 31/21 A3005 RMK A01
K2A0 072035Z AUTO 35008KT 10SM FEW048 32/21 A3005 RMK A01
K2A0 072015Z AUTO VRB05KT 10SM CLR 32/21 A3006 RMK A01
K2A0 071955Z AUTO 00000KT 10SM CLR 32/21 A3006 RMK A01
K2A0 071935Z AUTO 34006KT 10SM CLR 31/21 A3007 RMK A01
K2A0 071915Z AUTO 36005KT 10SM CLR 32/20 A3007 RMK A01
K2A0 071855Z AUTO VRB05KT 10SM CLR 32/21 A3008 RMK A01
K2A0 071835Z AUTO 00000KT 10SM CLR 32/20 A3008 RMK A01
K2A0 071815Z AUTO VRB05KT 10SM CLR 32/20 A3008 RMK A01
K2A0 071755Z AUTO 00000KT 10SM CLR 31/21 A3008 RMK A01
K2A0 071735Z AUTO 00000KT 10SM CLR 30/20 A3008 RMK A01
K2A0 071715Z AUTO VRB04KT 10SM FEW030 FEW037 SCT043 30/22 A3009 RMK A01
K2A0 071655Z AUTO VRB04KT 10SM FEW030 SCT035 30/22 A3009 RMK A01
K2A0 071635Z AUTO VRB03KT 10SM CLR 30/22 A3009 RMK A01
K2A0 071615Z AUTO 00000KT 10SM CLR 29/22 A3010 RMK A01
K2A0 071555Z AUTO 00000KT 10SM CLR 28/22 A3010 RMK A01
K2A0 071535Z AUTO 11004KT 10SM CLR 28/22 A3010 RMK A01
K2A0 071515Z AUTO VRB03KT 10SM CLR 27/23 A3010 RMK A01
K2A0 071455Z AUTO 00000KT 10SM CLR 27/22 A3009 RMK A01
K2A0 071435Z AUTO 00000KT 10SM SCT013 26/22 A3009 RMK A01
K2A0 071415Z AUTO 00000KT 10SM SCT013 26/22 A3010 RMK A01
K2A0 071355Z AUTO 00000KT 10SM CLR 25/22 A3010 RMK A01
K2A0 071335Z AUTO 00000KT 10SM CLR 24/22 A3010 RMK A01
K2A0 071315Z AUTO 00000KT 10SM CLR 24/22 A3009 RMK A01
K2A0 071255Z AUTO 00000KT 10SM CLR 24/22 A3009 RMK A01
K2A0 071235Z AUTO 00000KT 9SM CLR 23/22 A3008 RMK A01
K2A0 071215Z AUTO 00000KT 8SM CLR 22/22 A3008 RMK A01
K2A0 071155Z AUTO 00000KT 3SM BR FEW008 21/21 A3008 RMK A01
K2A0 071135Z AUTO 00000KT 2 1/2SM BR CLR 21/21 A3007 RMK A01
K2A0 071115Z AUTO 00000KT 2SM BR CLR 21/21 A3007 RMK A01
K2A0 071055Z AUTO 00000KT 2 1/2SM BR BKN009 21/21 A3007 RMK A01
K2A0 071035Z AUTO 00000KT 6SM BR OVC009 22/21 A3006 RMK A01
K2A0 071015Z AUTO 00000KT 4SM BR OVC009 21/21 A3005 RMK A01
K2A0 070955Z AUTO 00000KT 1 1/2SM BR OVC009 21/21 A3004 RMK A01